Surry, Maine
Current Conditions -  °F | °C
As of 4:35 PM on Friday 24 Oct 2014 (Local Time) from KBHB Reporting Station
Overcast Overcast  
Wind Chill: 41°   Ceiling: 800
Heat Index: 46°   Visibility: 10mi
Dew Point: 46°   Wind: 12mph
Humidity: 100%   Direction: 340°NNW
Pressure: 29.6"   Gusts: 18mph
Location:  44.5°N, 68.5°W
Report Text: KBHB 242035Z AUTO 34010G16KT 10SM OVC008 08/08 A2960 RMK AO1
Loading
Personal Weather Stations






























Interactive Weather Map New forecast layout! Learn more

10-Day Weather Forecast

Advertisements
Track Severe Weather on mobile